createdAt,value
2022-10-05T00:01:31.142Z,4.28
2022-10-05T00:04:18.766Z,4.80
2022-10-05T00:06:57.326Z,5.33
2022-10-05T00:09:24.983Z,4.78
2022-10-05T00:11:52.755Z,4.88
2022-10-05T00:14:38.278Z,4.57
2022-10-05T00:17:07.448Z,4.75
2022-10-05T00:19:35.908Z,4.78
2022-10-05T00:22:09.641Z,4.38
2022-10-05T00:24:37.487Z,4.18
2022-10-05T00:27:34.332Z,4.20
2022-10-05T00:30:02.379Z,4.30
2022-10-05T00:32:30.030Z,4.50
2022-10-05T00:34:58.159Z,4.05
2022-10-05T00:37:25.849Z,4.43
2022-10-05T00:39:53.575Z,3.90
2022-10-05T00:42:21.250Z,3.47
2022-10-05T00:45:04.200Z,3.50
2022-10-05T00:47:35.675Z,3.30
2022-10-05T00:50:06.364Z,3.45
2022-10-05T00:52:48.331Z,3.28
2022-10-05T00:55:19.035Z,2.97
2022-10-05T00:57:55.575Z,3.30
2022-10-05T01:00:24.832Z,3.70
2022-10-05T01:03:11.031Z,3.25
2022-10-05T01:05:41.588Z,3.80
2022-10-05T01:08:13.431Z,3.40
2022-10-05T01:10:59.823Z,3.40
2022-10-05T01:13:30.327Z,2.83
2022-10-05T01:16:07.032Z,3.20
2022-10-05T01:18:53.272Z,3.10
2022-10-05T01:21:21.983Z,3.20
2022-10-05T01:23:53.791Z,2.90
2022-10-05T01:26:40.354Z,2.95
2022-10-05T01:29:23.153Z,3.10
2022-10-05T01:31:53.707Z,2.60
2022-10-05T01:34:24.591Z,2.75
2022-10-05T01:36:55.546Z,2.75
2022-10-05T01:39:33.043Z,2.83
2022-10-05T01:42:06.905Z,3.25
2022-10-05T01:44:38.382Z,2.90
2022-10-05T01:47:10.795Z,2.47
2022-10-05T01:49:39.254Z,2.57
2022-10-05T01:52:13.399Z,2.80
2022-10-05T01:54:59.993Z,2.25
2022-10-05T01:57:46.139Z,2.50
2022-10-05T02:00:14.595Z,2.42
2022-10-05T02:02:48.371Z,2.47
2022-10-05T02:05:22.345Z,2.67
2022-10-05T02:08:00.122Z,2.55
2022-10-05T02:11:00.337Z,2.35
2022-10-05T02:13:31.205Z,2.58
2022-10-05T02:16:02.848Z,3.00
2022-10-05T02:18:39.192Z,2.92
2022-10-05T02:21:07.235Z,2.55
2022-10-05T02:23:35.683Z,2.90
2022-10-05T02:26:03.485Z,2.60
2022-10-05T02:28:35.994Z,2.15
2022-10-05T02:31:08.321Z,2.60
2022-10-05T02:33:36.164Z,2.55
2022-10-05T02:36:14.767Z,3.38
2022-10-05T02:38:48.586Z,3.08
2022-10-05T02:41:42.427Z,3.00
2022-10-05T02:44:10.067Z,3.40
2022-10-05T02:46:41.825Z,3.38
2022-10-05T02:49:15.947Z,3.50
2022-10-05T02:51:56.341Z,3.33
2022-10-05T02:54:23.960Z,3.60
2022-10-05T02:56:55.419Z,3.30
2022-10-05T02:59:24.953Z,3.78
2022-10-05T03:01:53.304Z,3.55
2022-10-05T03:04:21.682Z,3.30
2022-10-05T03:06:52.247Z,3.40
2022-10-05T03:09:20.017Z,3.33
2022-10-05T03:11:50.805Z,3.58
2022-10-05T03:14:28.077Z,3.30
2022-10-05T03:16:58.807Z,3.08
2022-10-05T03:19:29.989Z,3.30
2022-10-05T03:22:00.220Z,3.03
2022-10-05T03:24:47.600Z,3.08
2022-10-05T03:27:30.948Z,3.20
2022-10-05T03:30:03.565Z,2.85
2022-10-05T03:32:43.417Z,3.03
2022-10-05T03:35:30.281Z,2.78
2022-10-05T03:38:00.953Z,2.85
2022-10-05T03:40:28.737Z,2.37
2022-10-05T03:43:02.120Z,2.80
2022-10-05T03:45:32.692Z,2.80
2022-10-05T03:48:09.990Z,2.90
2022-10-05T03:50:47.030Z,2.25
2022-10-05T03:53:17.578Z,2.20
2022-10-05T03:55:55.394Z,2.63
2022-10-05T03:58:25.496Z,2.20
2022-10-05T04:00:54.416Z,2.40
2022-10-05T04:03:34.207Z,2.55
2022-10-05T04:06:08.257Z,2.40
2022-10-05T04:09:09.174Z,2.90
2022-10-05T04:11:39.077Z,2.30
2022-10-05T04:14:27.020Z,2.27
2022-10-05T04:16:59.303Z,2.47
2022-10-05T04:19:28.841Z,2.55
2022-10-05T04:21:58.749Z,2.33
2022-10-05T04:24:41.527Z,2.50
2022-10-05T04:27:14.308Z,2.08
2022-10-05T04:29:43.240Z,1.90
2022-10-05T04:32:17.074Z,2.20
2022-10-05T04:34:56.764Z,1.70
2022-10-05T04:37:33.439Z,2.20
2022-10-05T04:40:10.041Z,1.67
2022-10-05T04:42:40.794Z,1.75
2022-10-05T04:45:08.684Z,1.98
2022-10-05T04:48:05.642Z,2.08
2022-10-05T04:50:33.306Z,2.07
2022-10-05T04:53:16.121Z,2.08
2022-10-05T04:55:47.971Z,1.80
2022-10-05T04:58:28.834Z,1.70
2022-10-05T05:01:02.756Z,1.70
2022-10-05T05:03:39.634Z,1.90
2022-10-05T05:06:46.145Z,1.77
2022-10-05T05:09:14.021Z,2.00
2022-10-05T05:11:44.319Z,1.85
2022-10-05T05:14:14.994Z,2.05
2022-10-05T05:16:43.394Z,1.70
2022-10-05T05:19:11.310Z,1.80
2022-10-05T05:21:47.900Z,2.00
2022-10-05T05:24:26.914Z,2.10
2022-10-05T05:27:01.003Z,1.98
2022-10-05T05:29:34.570Z,2.83
2022-10-05T05:32:06.778Z,2.85
2022-10-05T05:34:55.941Z,2.70
2022-10-05T05:37:23.674Z,2.85
2022-10-05T05:39:51.311Z,2.60
2022-10-05T05:42:20.803Z,2.40
2022-10-05T05:44:54.786Z,2.28
2022-10-05T05:47:27.972Z,2.92
2022-10-05T05:50:11.126Z,2.50
2022-10-05T05:52:38.893Z,2.65
2022-10-05T05:55:14.452Z,2.75
2022-10-05T05:57:50.942Z,2.40
2022-10-05T06:00:22.529Z,2.50
2022-10-05T06:03:10.612Z,2.70
2022-10-05T06:05:45.663Z,2.58
2022-10-05T06:08:15.505Z,2.80
2022-10-05T06:10:48.447Z,3.00
2022-10-05T06:13:21.290Z,2.60
2022-10-05T06:15:52.117Z,2.40
2022-10-05T06:18:20.800Z,2.70
2022-10-05T06:20:57.712Z,2.50
2022-10-05T06:23:30.038Z,2.38
2022-10-05T06:26:12.633Z,2.97
2022-10-05T06:28:41.751Z,3.13
2022-10-05T06:31:21.865Z,2.80
2022-10-05T06:33:49.587Z,2.53
2022-10-05T06:36:29.729Z,2.33
2022-10-05T06:39:15.865Z,2.95
2022-10-05T06:41:43.583Z,2.83
2022-10-05T06:44:14.267Z,2.83
2022-10-05T06:46:49.644Z,3.15
2022-10-05T06:49:19.887Z,2.40
2022-10-05T06:51:57.846Z,2.60
2022-10-05T06:54:34.866Z,2.60
2022-10-05T06:57:17.730Z,2.78
2022-10-05T06:59:51.451Z,2.30
2022-10-05T07:02:19.207Z,2.90
2022-10-05T07:04:56.188Z,2.78
2022-10-05T07:07:23.955Z,2.60
2022-10-05T07:10:06.767Z,2.28
2022-10-05T07:13:09.834Z,2.38
2022-10-05T07:15:56.556Z,2.42
2022-10-05T07:18:27.470Z,2.50
2022-10-05T07:21:10.997Z,2.30
2022-10-05T07:23:38.714Z,2.42
2022-10-05T07:26:26.861Z,2.10
2022-10-05T07:29:00.593Z,2.45
2022-10-05T07:31:28.763Z,2.60
2022-10-05T07:34:06.113Z,2.37
2022-10-05T07:36:59.097Z,2.63
2022-10-05T07:39:59.039Z,2.30
2022-10-05T07:42:31.470Z,2.40
2022-10-05T07:45:00.087Z,2.00
2022-10-05T07:47:39.082Z,2.25
2022-10-05T07:50:09.893Z,2.30
2022-10-05T07:52:37.963Z,2.17
2022-10-05T07:55:19.056Z,2.10
2022-10-05T07:57:50.146Z,1.90
2022-10-05T08:00:21.378Z,2.10
2022-10-05T08:02:58.621Z,1.63
2022-10-05T08:05:27.871Z,1.83
2022-10-05T08:07:57.995Z,2.20
2022-10-05T08:10:34.445Z,1.40
2022-10-05T08:13:02.624Z,1.98
2022-10-05T08:15:33.011Z,1.73
2022-10-05T08:18:00.682Z,1.67
2022-10-05T08:20:40.472Z,2.05
2022-10-05T08:23:20.394Z,2.08
2022-10-05T08:25:55.892Z,1.33
2022-10-05T08:28:24.807Z,1.80
2022-10-05T08:31:15.964Z,1.30
2022-10-05T08:33:55.911Z,1.27
2022-10-05T08:36:44.982Z,1.08
2022-10-05T08:39:14.156Z,1.33
2022-10-05T08:41:41.907Z,0.82
2022-10-05T08:44:28.162Z,1.00
2022-10-05T08:47:02.098Z,0.85
2022-10-05T08:49:35.209Z,0.95
2022-10-05T08:52:21.711Z,1.13
2022-10-05T08:54:52.358Z,0.90
2022-10-05T08:57:22.868Z,0.77
2022-10-05T08:59:53.384Z,0.82
2022-10-05T09:02:23.926Z,1.25
2022-10-05T09:04:59.326Z,0.77
2022-10-05T09:07:45.304Z,0.80
2022-10-05T09:10:15.823Z,0.90
2022-10-05T09:13:02.084Z,1.10
2022-10-05T09:15:48.322Z,0.70
2022-10-05T09:18:35.103Z,0.90
2022-10-05T09:21:12.137Z,0.70
2022-10-05T09:23:43.253Z,0.93
2022-10-05T09:26:42.510Z,0.88
2022-10-05T09:29:16.190Z,0.75
2022-10-05T09:31:59.576Z,1.00
2022-10-05T09:34:46.148Z,1.10
2022-10-05T09:37:46.505Z,0.83
2022-10-05T09:40:35.146Z,0.90
2022-10-05T09:43:06.115Z,0.80
2022-10-05T09:45:37.053Z,0.80
2022-10-05T09:48:13.990Z,1.20
2022-10-05T09:50:45.034Z,1.10
2022-10-05T09:53:32.410Z,1.10
2022-10-05T09:56:06.007Z,1.10
2022-10-05T09:58:33.806Z,1.40
2022-10-05T10:01:36.465Z,1.15
2022-10-05T10:04:10.320Z,1.30
2022-10-05T10:06:47.072Z,1.30
2022-10-05T10:09:38.826Z,1.20
2022-10-05T10:12:22.019Z,1.63
2022-10-05T10:15:08.335Z,1.38
2022-10-05T10:17:45.144Z,1.27
2022-10-05T10:20:29.646Z,1.50
2022-10-05T10:23:23.726Z,1.40
2022-10-05T10:26:11.895Z,1.40
2022-10-05T10:28:39.989Z,1.05
2022-10-05T10:31:26.587Z,1.10
2022-10-05T10:34:03.252Z,1.60
2022-10-05T10:36:39.425Z,1.50
2022-10-05T10:39:19.045Z,1.30
2022-10-05T10:41:49.570Z,1.30
2022-10-05T10:44:23.302Z,1.17
2022-10-05T10:47:09.659Z,1.42
2022-10-05T10:49:49.911Z,1.10
2022-10-05T10:52:31.349Z,1.10
2022-10-05T10:55:31.582Z,1.30
2022-10-05T10:58:10.211Z,1.53
2022-10-05T11:00:59.782Z,1.33
2022-10-05T11:03:30.339Z,1.30
2022-10-05T11:06:07.674Z,1.40
2022-10-05T11:08:41.646Z,1.40
2022-10-05T11:11:24.300Z,1.40
2022-10-05T11:14:02.988Z,1.73
2022-10-05T11:16:49.783Z,1.40
2022-10-05T11:19:17.687Z,1.52
2022-10-05T11:21:54.250Z,1.52
2022-10-05T11:24:41.168Z,1.70
2022-10-05T11:27:27.502Z,1.83
2022-10-05T11:30:07.051Z,1.65
2022-10-05T11:32:53.716Z,1.60
2022-10-05T11:35:31.226Z,1.50
2022-10-05T11:38:08.954Z,1.58
2022-10-05T11:40:52.165Z,1.70
2022-10-05T11:43:24.277Z,1.63
2022-10-05T11:46:11.031Z,1.83
2022-10-05T11:48:57.534Z,1.40
2022-10-05T11:51:43.983Z,1.40
2022-10-05T11:54:17.685Z,1.40
2022-10-05T11:56:58.125Z,1.10
2022-10-05T11:59:31.233Z,1.27
2022-10-05T12:02:14.413Z,1.30
2022-10-05T12:05:14.592Z,1.10
2022-10-05T12:07:48.941Z,1.13
2022-10-05T12:10:32.881Z,1.23
2022-10-05T12:13:13.717Z,2.17
2022-10-05T12:15:55.554Z,1.20
2022-10-05T12:18:26.484Z,1.30
2022-10-05T12:21:02.349Z,1.00
2022-10-05T12:23:45.527Z,1.30
2022-10-05T12:26:35.415Z,1.20
2022-10-05T12:29:17.865Z,1.40
2022-10-05T12:31:48.583Z,1.10
2022-10-05T12:34:20.804Z,1.20
2022-10-05T12:37:05.788Z,1.10
2022-10-05T12:39:54.001Z,1.10
2022-10-05T12:42:26.530Z,1.30
2022-10-05T12:45:04.603Z,1.20
2022-10-05T12:47:49.220Z,1.05
2022-10-05T12:50:38.189Z,1.20
2022-10-05T12:53:08.657Z,1.00
2022-10-05T12:55:48.527Z,1.20
2022-10-05T12:58:28.947Z,1.15
2022-10-05T13:00:58.883Z,1.20
2022-10-05T13:03:27.590Z,1.15
2022-10-05T13:06:02.440Z,1.20
2022-10-05T13:08:49.081Z,1.48
2022-10-05T13:11:35.169Z,1.30
2022-10-05T13:14:07.525Z,1.35
2022-10-05T13:16:45.039Z,0.93
2022-10-05T13:19:31.623Z,1.77
2022-10-05T13:22:18.430Z,1.45
2022-10-05T13:24:59.504Z,1.95
2022-10-05T13:27:35.723Z,1.70
2022-10-05T13:30:05.234Z,1.23
2022-10-05T13:32:37.028Z,1.33
2022-10-05T13:35:25.014Z,1.58
2022-10-05T13:38:01.495Z,1.40
2022-10-05T13:40:47.951Z,1.70
2022-10-05T13:43:17.182Z,1.77
2022-10-05T13:46:13.026Z,1.50
2022-10-05T13:48:56.219Z,1.63
2022-10-05T13:51:35.993Z,1.60
2022-10-05T13:54:12.406Z,1.50
2022-10-05T13:56:41.044Z,1.52
2022-10-05T13:59:12.088Z,2.45
2022-10-05T14:01:47.117Z,2.00
2022-10-05T14:04:19.299Z,1.50
2022-10-05T14:06:47.220Z,1.98
2022-10-05T14:09:29.271Z,1.80
2022-10-05T14:12:07.199Z,1.73
2022-10-05T14:14:43.613Z,2.45
2022-10-05T14:17:14.977Z,1.67
2022-10-05T14:19:44.161Z,1.83
2022-10-05T14:22:17.617Z,1.70
2022-10-05T14:25:06.151Z,1.88
2022-10-05T14:27:37.862Z,1.63
2022-10-05T14:30:14.991Z,1.70
2022-10-05T14:32:52.626Z,1.73
2022-10-05T14:35:24.178Z,1.75
2022-10-05T14:37:51.859Z,1.77
2022-10-05T14:40:26.194Z,1.70
2022-10-05T14:42:53.994Z,1.70
2022-10-05T14:45:23.803Z,1.60
2022-10-05T14:48:00.235Z,1.65
2022-10-05T14:50:31.549Z,1.50
2022-10-05T14:53:01.026Z,1.70
2022-10-05T14:55:43.888Z,1.37
2022-10-05T14:58:18.070Z,1.70
2022-10-05T15:00:57.577Z,1.55
2022-10-05T15:03:29.416Z,1.50
2022-10-05T15:05:59.215Z,1.38
2022-10-05T15:08:45.750Z,1.40
2022-10-05T15:11:19.334Z,1.60
2022-10-05T15:13:48.706Z,1.60
2022-10-05T15:16:20.897Z,1.40
2022-10-05T15:19:04.691Z,1.20
2022-10-05T15:21:35.344Z,1.20
2022-10-05T15:24:24.360Z,1.40
2022-10-05T15:26:53.082Z,1.30
2022-10-05T15:29:29.953Z,1.40
2022-10-05T15:31:57.690Z,1.17
2022-10-05T15:34:29.569Z,1.27
2022-10-05T15:37:03.346Z,1.55
2022-10-05T15:39:38.341Z,1.50
2022-10-05T15:42:06.985Z,1.20
2022-10-05T15:44:43.931Z,1.45
2022-10-05T15:47:18.045Z,1.13
2022-10-05T15:49:57.315Z,1.20
2022-10-05T15:52:31.903Z,1.30
2022-10-05T15:54:59.639Z,1.20
2022-10-05T15:57:42.450Z,1.00
2022-10-05T16:00:16.874Z,1.20
2022-10-05T16:02:44.669Z,1.30
2022-10-05T16:05:20.116Z,1.13
2022-10-05T16:08:09.086Z,1.30
2022-10-05T16:10:38.247Z,1.10
2022-10-05T16:13:09.024Z,1.17
2022-10-05T16:15:42.820Z,1.55
2022-10-05T16:18:22.109Z,1.40
2022-10-05T16:21:10.918Z,1.50
2022-10-05T16:23:51.916Z,1.27
2022-10-05T16:26:27.039Z,1.33
2022-10-05T16:28:54.766Z,1.23
2022-10-05T16:31:37.514Z,1.60
2022-10-05T16:34:17.349Z,1.60
2022-10-05T16:37:03.922Z,1.20
2022-10-05T16:39:45.280Z,1.20
2022-10-05T16:42:18.442Z,1.20
2022-10-05T16:45:08.144Z,0.80
2022-10-05T16:47:47.724Z,1.00
2022-10-05T16:50:20.842Z,0.90
2022-10-05T16:52:50.910Z,1.08
2022-10-05T16:55:21.729Z,0.90
2022-10-05T16:57:52.597Z,0.93
2022-10-05T17:00:20.649Z,0.95
2022-10-05T17:02:55.470Z,0.73
2022-10-05T17:05:24.275Z,0.97
2022-10-05T17:08:12.175Z,1.05
2022-10-05T17:10:41.258Z,0.90
2022-10-05T17:13:11.120Z,1.10
2022-10-05T17:15:42.456Z,1.13
2022-10-05T17:18:28.023Z,1.05
2022-10-05T17:21:12.709Z,1.10
2022-10-05T17:23:57.644Z,1.08
2022-10-05T17:26:44.133Z,1.45
2022-10-05T17:29:27.933Z,0.80
2022-10-05T17:32:18.435Z,1.47
2022-10-05T17:35:04.923Z,0.80
2022-10-05T17:37:43.835Z,1.15
2022-10-05T17:40:44.041Z,1.10
2022-10-05T17:43:17.563Z,1.10
2022-10-05T17:45:46.101Z,0.80
2022-10-05T17:48:14.027Z,1.10
2022-10-05T17:51:00.181Z,1.52
2022-10-05T17:54:05.039Z,1.33
2022-10-05T17:56:55.686Z,1.13
2022-10-05T17:59:41.950Z,1.40
2022-10-05T18:02:30.549Z,1.50
2022-10-05T18:05:07.253Z,1.20
2022-10-05T18:07:35.223Z,1.30
2022-10-05T18:10:17.767Z,1.15
2022-10-05T18:13:00.532Z,1.50
2022-10-05T18:15:29.355Z,1.20
2022-10-05T18:18:20.254Z,1.30
2022-10-05T18:21:06.795Z,1.30
2022-10-05T18:23:36.361Z,1.20
2022-10-05T18:26:24.014Z,1.10
2022-10-05T18:29:13.907Z,1.65
2022-10-05T18:31:46.527Z,1.20
2022-10-05T18:34:26.650Z,0.87
2022-10-05T18:37:17.708Z,1.25
2022-10-05T18:39:45.369Z,1.50
2022-10-05T18:42:27.487Z,1.45
2022-10-05T18:45:11.225Z,1.35
2022-10-05T18:47:42.076Z,1.23
2022-10-05T18:50:09.727Z,1.20
2022-10-05T18:52:47.366Z,1.43
2022-10-05T18:55:27.365Z,1.17
2022-10-05T18:58:01.005Z,1.45
2022-10-05T19:00:51.162Z,1.33
2022-10-05T19:03:19.631Z,1.30
2022-10-05T19:06:12.823Z,1.60
2022-10-05T19:09:01.287Z,1.40
2022-10-05T19:11:39.882Z,1.30
2022-10-05T19:14:29.212Z,1.73
2022-10-05T19:17:13.194Z,1.58
2022-10-05T19:19:50.515Z,1.83
2022-10-05T19:22:47.749Z,1.67
2022-10-05T19:25:37.602Z,1.60
2022-10-05T19:28:09.074Z,1.57
2022-10-05T19:30:48.918Z,2.15
2022-10-05T19:33:23.707Z,1.58
2022-10-05T19:35:51.647Z,0.90
2022-10-05T19:38:22.708Z,1.02
2022-10-05T19:40:57.315Z,0.60
2022-10-05T19:43:27.939Z,0.60
2022-10-05T19:45:56.803Z,0.47
2022-10-05T19:48:50.699Z,0.60
2022-10-05T19:51:29.536Z,0.63
2022-10-05T19:53:58.932Z,0.60
2022-10-05T19:56:28.760Z,0.63
2022-10-05T19:59:02.186Z,0.52
2022-10-05T20:01:37.019Z,0.50
2022-10-05T20:04:05.443Z,0.50
2022-10-05T20:06:33.182Z,0.40
2022-10-05T20:09:04.429Z,0.50
2022-10-05T20:11:32.291Z,0.33
2022-10-05T20:14:03.082Z,0.30
2022-10-05T20:16:52.118Z,0.20
2022-10-05T20:19:50.392Z,0.30
2022-10-05T20:22:27.203Z,0.35
2022-10-05T20:24:56.268Z,0.20
2022-10-05T20:27:42.512Z,0.40
2022-10-05T20:30:14.500Z,0.40
2022-10-05T20:32:43.707Z,0.50
2022-10-05T20:35:11.490Z,0.20
2022-10-05T20:37:40.199Z,0.27
2022-10-05T20:40:08.343Z,0.30
2022-10-05T20:42:36.009Z,0.35
2022-10-05T20:45:04.250Z,0.30
2022-10-05T20:47:32.204Z,0.40
2022-10-05T20:49:59.964Z,0.30
2022-10-05T20:52:27.741Z,0.93
2022-10-05T20:54:59.009Z,0.63
2022-10-05T20:57:26.872Z,0.47
2022-10-05T20:59:57.507Z,0.32
2022-10-05T21:02:25.259Z,0.20
2022-10-05T21:04:53.059Z,0.40
2022-10-05T21:07:21.834Z,0.32
2022-10-05T21:09:49.554Z,0.40
2022-10-05T21:12:17.285Z,0.60
2022-10-05T21:14:45.542Z,0.20
2022-10-05T21:17:13.529Z,0.55
2022-10-05T21:19:41.299Z,0.40
2022-10-05T21:22:09.499Z,0.70
2022-10-05T21:24:41.301Z,0.50
2022-10-05T21:27:09.710Z,0.40
2022-10-05T21:29:37.521Z,0.50
2022-10-05T21:32:08.815Z,0.63
2022-10-05T21:34:36.620Z,0.50
2022-10-05T21:37:04.371Z,0.43
2022-10-05T21:39:33.681Z,0.22
2022-10-05T21:42:01.658Z,0.53
2022-10-05T21:44:29.302Z,0.40
2022-10-05T21:46:57.059Z,0.30
2022-10-05T21:49:24.977Z,0.30
2022-10-05T21:51:52.708Z,0.37
2022-10-05T21:54:20.859Z,0.60
2022-10-05T21:56:52.270Z,0.65
2022-10-05T21:59:20.587Z,0.40
2022-10-05T22:01:51.281Z,0.40
2022-10-05T22:04:19.045Z,0.52
2022-10-05T22:06:46.699Z,0.47
2022-10-05T22:09:14.452Z,0.52
2022-10-05T22:11:42.088Z,0.43
2022-10-05T22:14:09.820Z,0.50
2022-10-05T22:16:38.266Z,0.67
2022-10-05T22:19:06.345Z,0.40
2022-10-05T22:21:38.273Z,0.40
2022-10-05T22:24:06.158Z,0.50
2022-10-05T22:26:34.951Z,0.57
2022-10-05T22:29:02.647Z,0.47
2022-10-05T22:31:30.468Z,0.50
2022-10-05T22:33:58.174Z,0.50
2022-10-05T22:36:25.966Z,0.50
2022-10-05T22:38:53.651Z,0.65
2022-10-05T22:41:21.506Z,0.57
2022-10-05T22:43:50.894Z,0.22
2022-10-05T22:46:18.830Z,0.50
2022-10-05T22:48:46.580Z,0.50
2022-10-05T22:51:14.227Z,0.32
2022-10-05T22:53:41.994Z,0.40
2022-10-05T22:56:10.568Z,0.68
2022-10-05T22:58:38.311Z,0.70
2022-10-05T23:01:07.267Z,0.60
2022-10-05T23:03:35.208Z,0.32
2022-10-05T23:06:04.454Z,0.50
2022-10-05T23:08:32.848Z,0.80
2022-10-05T23:11:10.469Z,0.38
2022-10-05T23:13:39.586Z,0.33
2022-10-05T23:16:08.367Z,0.47
2022-10-05T23:18:36.167Z,0.90
2022-10-05T23:21:03.931Z,0.63
2022-10-05T23:23:31.733Z,0.40
2022-10-05T23:26:02.744Z,0.65
2022-10-05T23:28:31.006Z,0.40
2022-10-05T23:31:08.582Z,0.57
2022-10-05T23:33:36.289Z,0.55
2022-10-05T23:36:07.780Z,0.40
2022-10-05T23:38:35.744Z,0.53
2022-10-05T23:41:03.551Z,0.40
2022-10-05T23:43:33.387Z,0.55
2022-10-05T23:46:01.315Z,0.60
2022-10-05T23:48:30.327Z,0.60
2022-10-05T23:50:58.316Z,0.57
2022-10-05T23:53:26.038Z,0.55
2022-10-05T23:55:53.943Z,0.70
2022-10-05T23:58:21.848Z,0.52
